Time;durP1;ratioP1;P1;durP2;ratioP2;P2;SDS_P1;SDS_P2;PMS_P1;PMS_P2;Temp;Humidity;BMP_temperature;BMP_pressure;BME280_temperature;BME280_humidity;BME280_pressure;Samples;Min_cycle;Max_cycle;Signal;HPM_P1;HPM_P2
2023/06/06 00:00:09;;;;;;;1.73;1.63;;;;;;;22.44;49.96;102010.06;5048057;28;20037;-54
2023/06/06 00:02:40;;;;;;;1.90;1.80;;;;;;;22.43;50.39;102019.22;5047602;28;20491;-57
2023/06/06 00:05:07;;;;;;;;;;;;;;;22.54;50.38;102007.31;5046575;28;20067;-55
2023/06/06 00:07:32;;;;;;;1.85;1.70;;;;;;;22.45;49.83;102009.06;5046494;28;19921;-55
2023/06/06 00:09:58;;;;;;;2.00;1.90;;;;;;;22.43;50.30;102008.38;5046544;28;20040;-55
2023/06/06 00:12:23;;;;;;;2.13;1.92;;;;;;;22.42;50.45;102006.66;5045427;28;20025;-55
2023/06/06 00:14:49;;;;;;;1.90;1.80;;;;;;;22.41;49.98;102008.50;5045814;28;20037;-55
2023/06/06 00:17:15;;;;;;;2.28;2.08;;;;;;;22.41;49.92;102005.81;5046172;28;20501;-55
2023/06/06 00:19:42;;;;;;;2.05;1.95;;;;;;;22.41;50.21;102010.38;5047105;28;20033;-55
2023/06/06 00:22:08;;;;;;;1.83;1.73;;;;;;;22.41;50.19;102013.09;5059935;28;20374;-55
2023/06/06 00:24:33;;;;;;;2.17;1.98;;;;;;;22.40;50.25;102003.22;5047343;28;20029;-55
2023/06/06 00:26:58;;;;;;;2.38;1.80;;;;;;;22.39;49.89;102005.09;5048215;28;20040;-55
2023/06/06 00:29:24;;;;;;;1.92;1.83;;;;;;;22.39;49.81;102001.50;5049543;28;20506;-55
2023/06/06 00:31:49;;;;;;;1.95;1.85;;;;;;;22.39;50.20;102004.22;5048991;28;20032;-55
2023/06/06 00:34:15;;;;;;;2.50;2.30;;;;;;;22.39;50.26;102010.53;5049639;28;20072;-55
2023/06/06 00:36:40;;;;;;;2.08;1.83;;;;;;;22.38;49.93;102006.09;5049610;28;20038;-55
2023/06/06 00:39:06;;;;;;;1.67;1.58;;;;;;;22.38;50.05;102016.09;5050537;28;20040;-55
2023/06/06 00:41:31;;;;;;;2.05;1.88;;;;;;;22.37;50.17;102008.94;5045168;28;20038;-55
2023/06/06 00:43:56;;;;;;;2.15;1.98;;;;;;;22.37;49.54;102014.38;5049527;28;20033;-55
2023/06/06 00:46:23;;;;;;;2.30;2.10;;;;;;;22.35;49.71;102011.81;5049943;28;20100;-56
2023/06/06 00:48:49;;;;;;;3.13;2.05;;;;;;;22.36;50.28;102015.38;5049557;28;20069;-55
2023/06/06 00:51:16;;;;;;;1.80;1.70;;;;;;;22.35;49.82;102009.13;5045256;28;20419;-55
2023/06/06 00:53:42;;;;;;;2.28;2.10;;;;;;;22.35;50.04;102011.81;5050320;28;20057;-55
2023/06/06 00:56:09;;;;;;;2.35;2.08;;;;;;;22.34;49.95;102010.09;5055254;28;20571;-55
2023/06/06 00:58:35;;;;;;;1.80;1.70;;;;;;;22.34;49.63;102009.25;5047649;28;20048;-55
2023/06/06 01:01:01;;;;;;;2.20;2.00;;;;;;;22.34;49.77;102010.09;5049224;28;20482;-55
2023/06/06 01:03:29;;;;;;;2.00;1.90;;;;;;;22.34;49.45;102003.81;5049819;28;20039;-55
2023/06/06 01:05:55;;;;;;;2.10;2.00;;;;;;;22.32;49.59;102009.41;5048674;28;20048;-55
2023/06/06 01:08:21;;;;;;;2.47;2.20;;;;;;;22.33;50.00;102002.09;5048888;28;20526;-55
2023/06/06 01:10:47;;;;;;;2.45;2.25;;;;;;;22.32;49.82;102000.41;5049274;28;20063;-55
2023/06/06 01:13:38;;;;;;;1.70;1.60;;;;;;;22.36;49.62;102012.66;5049690;28;20493;-55
2023/06/06 01:16:13;;;;;;;2.17;2.00;;;;;;;22.33;49.79;102007.53;5045940;28;20027;-55
2023/06/06 01:18:41;;;;;;;2.30;2.10;;;;;;;22.31;49.31;102009.53;5053914;28;20028;-55
2023/06/06 01:21:06;;;;;;;2.10;1.90;;;;;;;22.32;49.73;102005.84;5050047;28;20045;-55
2023/06/06 01:23:34;;;;;;;2.00;1.90;;;;;;;22.30;49.96;102013.28;5055418;28;20480;-55
2023/06/06 01:26:04;;;;;;;2.38;2.17;;;;;;;22.29;49.48;102006.97;5045685;28;20033;-55
2023/06/06 01:28:30;;;;;;;1.60;1.50;;;;;;;22.30;49.29;102007.84;5048583;28;20125;-55
2023/06/06 01:30:55;;;;;;;2.13;1.90;;;;;;;22.29;49.32;102008.81;5048808;28;20311;-55
2023/06/06 01:33:43;;;;;;;2.00;1.67;;;;;;;22.32;49.85;102006.69;5049282;28;20048;-55
2023/06/06 01:36:37;;;;;;;1.80;1.70;;;;;;;22.32;49.30;102009.41;5048051;28;20033;-55
2023/06/06 01:39:07;;;;;;;2.53;2.20;;;;;;;22.29;49.22;102011.53;5050953;28;20032;-55
2023/06/06 01:41:36;;;;;;;2.15;1.95;;;;;;;22.28;49.18;101999.84;5049181;28;20032;-55
2023/06/06 01:44:02;;;;;;;2.20;2.00;;;;;;;22.28;49.48;102001.72;5047961;28;20111;-55
2023/06/06 01:46:28;;;;;;;2.20;2.00;;;;;;;22.26;49.43;101996.41;5048066;28;20516;-55
2023/06/06 01:48:55;;;;;;;1.92;1.73;;;;;;;22.25;49.31;102005.53;5048582;28;20061;-55
2023/06/06 01:51:21;;;;;;;2.20;2.10;;;;;;;22.26;49.13;101999.13;5049206;28;20040;-55
2023/06/06 01:53:46;;;;;;;2.38;2.08;;;;;;;22.24;49.47;101993.81;5051099;28;20051;-55
2023/06/06 01:56:14;;;;;;;2.03;1.83;;;;;;;22.25;49.05;101998.25;5048210;28;20096;-55
2023/06/06 01:58:42;;;;;;;1.60;1.50;;;;;;;22.23;49.64;102000.22;5048320;28;20044;-55
2023/06/06 02:01:08;;;;;;;2.58;2.38;;;;;;;22.24;49.27;101998.41;5080613;28;20119;-55
2023/06/06 02:03:34;;;;;;;2.33;2.13;;;;;;;22.23;49.02;101997.50;5079865;28;20436;-55
2023/06/06 02:06:01;;;;;;;2.05;1.85;;;;;;;22.23;48.86;102002.09;5047698;28;20033;-55
2023/06/06 02:08:26;;;;;;;2.13;1.80;;;;;;;22.21;49.13;101999.53;5048049;28;20112;-55
2023/06/06 02:10:52;;;;;;;2.30;2.10;;;;;;;22.22;49.22;101998.53;5048202;28;20144;-55
2023/06/06 02:13:17;;;;;;;2.10;2.00;;;;;;;22.21;49.22;102002.25;5047440;28;20542;-55
2023/06/06 02:15:42;;;;;;;1.80;1.70;;;;;;;22.21;48.86;102004.94;5081135;28;20101;-55
2023/06/06 02:18:08;;;;;;;2.38;2.17;;;;;;;22.19;48.92;102004.25;5048192;28;20044;-55
2023/06/06 02:20:33;;;;;;;2.40;2.20;;;;;;;22.20;48.85;101995.13;5047242;28;20152;-55
2023/06/06 02:22:58;;;;;;;1.70;1.60;;;;;;;22.20;49.27;102003.25;5052710;28;20056;-55
2023/06/06 02:25:24;;;;;;;2.13;1.92;;;;;;;22.19;48.79;102006.09;5049767;28;20040;-55
2023/06/06 02:27:50;;;;;;;2.17;1.98;;;;;;;22.18;48.70;102004.38;5049676;28;20044;-55
2023/06/06 02:30:16;;;;;;;2.63;2.42;;;;;;;22.18;48.97;102005.25;5047029;28;20029;-55
2023/06/06 02:32:41;;;;;;;2.83;1.98;;;;;;;22.18;48.91;101996.25;5047946;28;20379;-55
2023/06/06 02:35:07;;;;;;;2.00;1.90;;;;;;;22.18;49.05;102001.66;5047500;28;20033;-55
2023/06/06 02:37:33;;;;;;;2.53;2.33;;;;;;;22.17;48.64;102002.69;5051245;28;20467;-55
2023/06/06 02:40:05;;;;;;;2.05;1.85;;;;;;;22.16;48.95;101999.13;5046775;28;20028;-55
2023/06/06 02:42:31;;;;;;;2.65;2.22;;;;;;;22.16;48.62;101995.53;5047131;28;20029;-55
2023/06/06 02:44:56;;;;;;;2.00;1.90;;;;;;;22.16;48.96;101998.25;5047475;28;20039;-55
2023/06/06 02:47:22;;;;;;;1.90;1.80;;;;;;;22.16;48.35;101995.53;5047337;28;20398;-55
2023/06/06 02:49:47;;;;;;;2.60;2.35;;;;;;;22.15;48.66;101997.41;5046334;28;20065;-55
2023/06/06 02:52:13;;;;;;;1.92;1.83;;;;;;;22.16;48.34;101998.25;5046779;28;20033;-55
2023/06/06 02:54:40;;;;;;;2.50;2.00;;;;;;;22.15;48.60;102001.97;5047049;28;20129;-55
2023/06/06 02:57:05;;;;;;;2.10;1.95;;;;;;;22.14;48.79;102002.97;5047834;28;20484;-55
2023/06/06 02:59:31;;;;;;;1.92;1.83;;;;;;;22.14;48.71;101997.53;5046965;28;20044;-55
2023/06/06 03:01:56;;;;;;;2.50;2.30;;;;;;;22.12;48.49;102005.81;5047124;28;20037;-55
2023/06/06 03:04:22;;;;;;;2.05;1.92;;;;;;;22.12;48.80;102005.81;5047892;28;20022;-55
2023/06/06 03:06:48;;;;;;;2.25;1.80;;;;;;;22.11;48.71;102014.97;5047322;28;20029;-55
2023/06/06 03:09:13;;;;;;;2.30;2.10;;;;;;;22.12;48.22;102015.81;5050540;28;20040;-55
2023/06/06 03:11:39;;;;;;;2.15;2.00;;;;;;;22.12;48.07;102013.09;5054172;28;20049;-55
2023/06/06 03:14:04;;;;;;;1.95;1.70;;;;;;;22.12;48.55;102013.09;5045237;28;20028;-55
2023/06/06 03:16:30;;;;;;;2.70;2.15;;;;;;;22.11;48.63;102012.25;5046720;28;20061;-55
2023/06/06 03:18:56;;;;;;;1.90;1.80;;;;;;;22.10;48.32;102018.69;5047080;28;20029;-55
2023/06/06 03:21:21;;;;;;;2.47;2.03;;;;;;;22.11;48.73;102014.13;5044417;28;20036;-55
2023/06/06 03:23:47;;;;;;;2.13;1.92;;;;;;;22.10;48.10;102010.53;5047424;28;20024;-55
2023/06/06 03:26:13;;;;;;;2.08;1.88;;;;;;;22.10;48.10;102012.41;5047510;28;20040;-55
2023/06/06 03:28:39;;;;;;;3.28;2.33;;;;;;;22.10;48.35;102017.81;5046651;28;20034;-55
2023/06/06 03:31:06;;;;;;;2.33;2.13;;;;;;;22.08;48.03;102007.13;5048064;28;20121;-55
2023/06/06 03:33:32;;;;;;;1.92;1.83;;;;;;;22.08;48.33;102015.25;5045919;28;20033;-55
2023/06/06 03:35:58;;;;;;;1.98;1.77;;;;;;;22.08;48.20;102006.28;5046265;28;20055;-55
2023/06/06 03:38:23;;;;;;;2.05;1.95;;;;;;;22.08;48.02;102007.13;5046637;28;20032;-55
2023/06/06 03:40:48;;;;;;;2.35;2.15;;;;;;;22.07;48.02;102005.41;5046772;28;20037;-55
2023/06/06 03:43:14;;;;;;;1.77;1.67;;;;;;;22.08;48.40;102014.41;5045870;28;20126;-55
2023/06/06 03:45:40;;;;;;;2.03;1.88;;;;;;;22.06;47.72;102006.41;5050018;28;20036;-55
2023/06/06 03:48:09;;;;;;;1.73;1.63;;;;;;;22.06;48.34;102011.84;5046293;28;20044;-58
2023/06/06 03:50:34;;;;;;;1.85;1.63;;;;;;;22.05;48.05;102015.56;5046649;28;20137;-55
2023/06/06 03:53:00;;;;;;;2.08;1.98;;;;;;;22.05;47.90;102013.69;5045527;28;20482;-55
2023/06/06 03:55:26;;;;;;;2.00;1.88;;;;;;;22.04;47.62;102009.25;5045778;28;20510;-55
2023/06/06 03:57:52;;;;;;;1.80;1.70;;;;;;;22.05;47.64;102007.44;5046502;28;20104;-55
2023/06/06 04:00:18;;;;;;;2.38;2.17;;;;;;;22.04;47.99;102011.13;5050280;28;20426;-55
2023/06/06 04:02:46;;;;;;;1.80;1.70;;;;;;;22.04;47.77;102011.97;5047580;28;20047;-55
2023/06/06 04:05:13;;;;;;;2.58;2.13;;;;;;;22.04;47.77;102008.41;5047209;28;20034;-55
2023/06/06 04:07:38;;;;;;;1.98;1.88;;;;;;;22.03;48.04;102013.00;5055716;28;20041;-55
2023/06/06 04:10:04;;;;;;;2.67;2.03;;;;;;;22.03;47.98;102017.56;5052090;28;20108;-55
2023/06/06 04:12:29;;;;;;;1.77;1.67;;;;;;;22.01;47.52;102004.16;5050153;28;20120;-55
2023/06/06 04:14:55;;;;;;;2.05;1.95;;;;;;;22.02;47.82;102010.41;5050148;28;20395;-55
2023/06/06 04:17:21;;;;;;;1.95;1.80;;;;;;;22.01;47.84;102011.44;5050423;28;20497;-55
2023/06/06 04:19:47;;;;;;;2.90;2.35;;;;;;;22.00;47.75;102007.84;5051150;28;20043;-55
2023/06/06 04:22:14;;;;;;;1.80;1.70;;;;;;;22.01;47.37;102014.16;5050802;28;20037;-55
2023/06/06 04:24:39;;;;;;;1.98;1.88;;;;;;;22.00;47.86;102007.00;5052885;28;20368;-55
2023/06/06 04:27:05;;;;;;;1.83;1.70;;;;;;;22.00;47.87;102015.13;5045478;28;20039;-55
2023/06/06 04:29:52;;;;;;;2.03;1.67;;;;;;;22.00;47.96;102017.84;5048940;28;20053;-55
2023/06/06 04:32:19;;;;;;;2.60;2.00;;;;;;;22.00;47.39;102012.41;5048963;28;20061;-55
2023/06/06 04:34:45;;;;;;;2.13;1.98;;;;;;;21.99;47.41;102011.56;5045318;28;20033;-55
2023/06/06 04:37:13;;;;;;;1.80;1.70;;;;;;;21.99;47.44;102016.13;5049529;28;20041;-55
2023/06/06 04:39:39;;;;;;;2.03;1.83;;;;;;;22.00;47.76;102023.25;5050106;28;20033;-55
2023/06/06 04:42:06;;;;;;;1.70;1.60;;;;;;;21.99;47.39;102016.13;5054044;28;20037;-55
2023/06/06 04:44:41;;;;;;;2.10;1.70;;;;;;;21.99;47.37;102018.81;5050430;28;20394;-55
2023/06/06 04:47:07;;;;;;;2.10;1.80;;;;;;;21.98;47.66;102019.84;5048486;28;20423;-55
2023/06/06 04:49:36;;;;;;;2.25;2.03;;;;;;;21.97;47.59;102018.13;5049334;28;20075;-55
2023/06/06 04:52:05;;;;;;;2.00;1.80;;;;;;;21.97;47.65;102012.69;5049678;28;20078;-55
2023/06/06 04:54:31;;;;;;;2.05;1.95;;;;;;;21.97;47.59;102012.69;5050007;28;20414;-55
2023/06/06 04:56:57;;;;;;;2.00;1.85;;;;;;;21.97;47.34;102012.69;5048472;28;20020;-55
2023/06/06 04:59:22;;;;;;;1.80;1.70;;;;;;;21.96;47.48;102009.13;5048892;28;20037;-55
2023/06/06 05:01:49;;;;;;;1.98;1.88;;;;;;;21.96;47.26;102011.84;5050743;28;20021;-55
2023/06/06 05:04:18;;;;;;;2.05;1.92;;;;;;;21.97;47.62;102020.84;5051362;28;20108;-55
2023/06/06 05:06:44;;;;;;;1.67;1.52;;;;;;;21.95;47.11;102018.28;5048656;28;20067;-55
2023/06/06 05:09:10;;;;;;;1.67;1.58;;;;;;;21.96;47.70;102016.44;5048732;28;20037;-55
2023/06/06 05:11:35;;;;;;;1.70;1.60;;;;;;;21.95;47.64;102021.00;5049190;28;20435;-55
2023/06/06 05:14:01;;;;;;;1.98;1.67;;;;;;;21.95;47.00;102022.84;5048662;28;20087;-55
2023/06/06 05:16:26;;;;;;;1.95;1.73;;;;;;;21.94;47.52;102007.56;5048664;28;20033;-55
2023/06/06 05:18:52;;;;;;;1.52;1.42;;;;;;;21.94;47.56;102007.56;5049277;28;20056;-55
2023/06/06 05:21:21;;;;;;;1.92;1.58;;;;;;;21.95;47.25;102020.13;5052949;28;20485;-55
2023/06/06 05:23:46;;;;;;;1.77;1.60;;;;;;;21.94;47.05;102023.84;5048460;28;20033;-55
2023/06/06 05:26:12;;;;;;;1.95;1.58;;;;;;;21.93;47.24;102019.41;5050109;28;20090;-55
2023/06/06 05:28:38;;;;;;;2.10;1.90;;;;;;;21.92;47.14;102018.56;5048864;28;20163;-55
2023/06/06 05:31:08;;;;;;;1.60;1.50;;;;;;;21.92;47.28;102018.56;5049477;28;20481;-55
2023/06/06 05:33:42;;;;;;;1.83;1.63;;;;;;;21.93;47.41;102014.84;5049249;28;20029;-55
2023/06/06 05:36:08;;;;;;;2.45;1.95;;;;;;;21.94;47.68;102018.44;5048181;28;20025;-55
2023/06/06 05:38:33;;;;;;;1.95;1.73;;;;;;;21.93;47.22;102019.41;5049148;28;20502;-55
2023/06/06 05:40:58;;;;;;;2.08;1.73;;;;;;;21.93;47.59;102019.41;5048481;28;20114;-55
2023/06/06 05:43:25;;;;;;;1.70;1.60;;;;;;;21.93;47.23;102024.84;5047662;28;20104;-55
2023/06/06 05:45:51;;;;;;;1.70;1.50;;;;;;;21.92;47.61;102031.28;5048215;28;20889;-55
2023/06/06 05:48:16;;;;;;;1.60;1.50;;;;;;;21.93;47.68;102027.53;5048327;28;20108;-55
2023/06/06 05:50:43;;;;;;;2.03;1.63;;;;;;;21.92;47.19;102028.56;5048401;28;20039;-55
2023/06/06 05:53:08;;;;;;;2.40;1.88;;;;;;;21.91;47.05;102035.81;5047829;28;20029;-55
2023/06/06 05:55:35;;;;;;;1.73;1.63;;;;;;;21.91;47.02;102034.97;5050206;28;20024;-55
2023/06/06 05:58:03;;;;;;;1.85;1.60;;;;;;;21.90;47.25;102034.13;5052500;28;20037;-55
2023/06/06 06:00:31;;;;;;;1.73;1.63;;;;;;;21.90;47.46;102031.41;5048337;28;20025;-55
2023/06/06 06:02:57;;;;;;;1.67;1.58;;;;;;;21.89;47.80;102026.97;5048306;28;20029;-55
2023/06/06 06:05:28;;;;;;;1.45;1.35;;;;;;;21.90;47.36;102023.28;5049398;28;20036;-55
2023/06/06 06:07:59;;;;;;;2.67;1.70;;;;;;;21.90;47.58;102031.41;5049164;28;20039;-55
2023/06/06 06:10:25;;;;;;;1.95;1.70;;;;;;;21.90;47.69;102038.69;5047827;28;20085;-55
2023/06/06 06:12:51;;;;;;;2.00;1.80;;;;;;;21.90;47.19;102023.28;5048262;28;20490;-55
2023/06/06 06:15:16;;;;;;;1.50;1.40;;;;;;;21.90;47.52;102028.69;5048456;28;20111;-55
2023/06/06 06:17:41;;;;;;;1.80;1.70;;;;;;;21.91;47.02;102026.84;5048606;28;20491;-55
2023/06/06 06:20:09;;;;;;;1.85;1.50;;;;;;;21.89;47.56;102026.97;5045077;28;20032;-55
2023/06/06 06:22:35;;;;;;;1.90;1.80;;;;;;;21.89;47.75;102026.13;5051456;28;20033;-55
2023/06/06 06:25:05;;;;;;;1.58;1.48;;;;;;;21.88;47.30;102030.69;5048021;28;20033;-55
2023/06/06 06:27:31;;;;;;;1.60;1.50;;;;;;;21.89;47.21;102031.56;5049559;28;20033;-55
2023/06/06 06:29:56;;;;;;;1.77;1.67;;;;;;;21.89;47.24;102037.81;5047035;28;20044;-55
2023/06/06 06:32:22;;;;;;;1.65;1.55;;;;;;;21.89;47.58;102028.84;5047637;28;20392;-55
2023/06/06 06:34:48;;;;;;;1.83;1.73;;;;;;;21.89;47.21;102039.69;5053351;28;20052;-55
2023/06/06 06:37:13;;;;;;;1.70;1.60;;;;;;;21.89;47.49;102042.41;5046602;28;20025;-55
2023/06/06 06:39:38;;;;;;;1.77;1.67;;;;;;;21.89;47.71;102037.81;5046811;28;20083;-55
2023/06/06 06:42:04;;;;;;;1.45;1.35;;;;;;;21.89;47.65;102047.81;5047425;28;20060;-55
2023/06/06 06:44:29;;;;;;;1.42;1.33;;;;;;;21.89;47.69;102042.41;5047823;28;20087;-55
2023/06/06 06:46:55;;;;;;;1.40;1.30;;;;;;;21.88;47.68;102041.56;5046736;28;20065;-55
2023/06/06 06:49:21;;;;;;;2.13;1.60;;;;;;;21.88;47.57;102035.28;5047791;28;20037;-55
2023/06/06 06:51:47;;;;;;;2.83;1.60;;;;;;;21.88;47.65;102038.00;5047193;28;20041;-55
2023/06/06 06:54:13;;;;;;;1.40;1.30;;;;;;;21.88;47.72;102046.13;5047037;28;20468;-55
2023/06/06 06:56:42;;;;;;;2.00;1.70;;;;;;;21.87;47.75;102045.25;5050886;28;20052;-55
2023/06/06 06:59:09;;;;;;;1.80;1.70;;;;;;;21.86;47.66;102047.09;5051301;28;20075;-55
2023/06/06 07:01:37;;;;;;;2.50;1.83;;;;;;;21.88;47.34;102046.13;5047193;28;20033;-55
2023/06/06 07:04:04;;;;;;;1.60;1.50;;;;;;;21.88;47.37;102046.13;5078734;28;20029;-55
2023/06/06 07:06:32;;;;;;;1.70;1.60;;;;;;;21.86;47.44;102049.81;5046031;28;20033;-55
2023/06/06 07:08:58;;;;;;;1.58;1.48;;;;;;;21.88;47.73;102046.97;5046446;28;20139;-55
2023/06/06 07:11:23;;;;;;;1.25;1.15;;;;;;;21.88;47.77;102044.25;5046977;28;20108;-55
2023/06/06 07:13:49;;;;;;;1.35;1.25;;;;;;;21.88;47.77;102048.84;5047138;28;20034;-55
2023/06/06 07:16:15;;;;;;;1.42;1.33;;;;;;;21.88;47.84;102040.69;5039840;28;20570;-55
2023/06/06 07:18:41;;;;;;;1.50;1.40;;;;;;;21.87;47.67;102047.97;5045939;28;20041;-55
2023/06/06 07:21:06;;;;;;;1.63;1.42;;;;;;;21.88;47.68;102043.41;5048688;28;20051;-55
2023/06/06 07:23:32;;;;;;;1.50;1.40;;;;;;;21.88;47.61;102038.00;5047093;28;20059;-55
2023/06/06 07:25:57;;;;;;;1.83;1.60;;;;;;;21.88;47.62;102040.69;5049356;28;20044;-55
2023/06/06 07:28:25;;;;;;;1.48;1.38;;;;;;;21.88;47.26;102035.28;5047641;28;20065;-55
2023/06/06 07:30:51;;;;;;;1.48;1.38;;;;;;;21.88;47.57;102040.69;5053078;28;20480;-55
2023/06/06 07:33:16;;;;;;;1.63;1.52;;;;;;;21.88;47.33;102035.28;5046508;28;20029;-55
2023/06/06 07:35:42;;;;;;;1.77;1.67;;;;;;;21.87;47.46;102034.41;5046962;28;20094;-55
2023/06/06 07:38:08;;;;;;;1.65;1.50;;;;;;;21.88;47.70;102035.28;5046907;28;20029;-55
2023/06/06 07:40:33;;;;;;;1.38;1.27;;;;;;;21.87;47.79;102031.69;5044090;28;20025;-55
2023/06/06 07:42:59;;;;;;;1.75;1.50;;;;;;;21.88;47.27;102033.41;5046159;28;20039;-55
2023/06/06 07:45:25;;;;;;;1.80;1.60;;;;;;;21.88;47.32;102029.84;5046708;28;20121;-55
2023/06/06 07:47:51;;;;;;;1.42;1.33;;;;;;;21.86;47.82;102025.41;5044308;28;20057;-55
2023/06/06 07:50:17;;;;;;;1.75;1.65;;;;;;;21.88;47.57;102019.00;5044017;28;20067;-55
2023/06/06 07:52:44;;;;;;;1.55;1.35;;;;;;;21.88;47.70;102019.00;5050487;28;20036;-55
2023/06/06 07:55:13;;;;;;;1.92;1.58;;;;;;;21.87;47.64;102020.84;5046330;28;20060;-55
2023/06/06 07:57:39;;;;;;;1.50;1.40;;;;;;;21.88;47.88;102019.00;5046694;28;20029;-55
2023/06/06 08:00:10;;;;;;;1.88;1.77;;;;;;;21.88;48.00;102028.00;5047576;28;20090;-55
2023/06/06 08:02:36;;;;;;;1.60;1.50;;;;;;;21.88;47.77;102022.56;5046137;28;20037;-55
2023/06/06 08:05:03;;;;;;;1.55;1.40;;;;;;;21.88;47.89;102013.59;5046073;28;20491;-55
2023/06/06 08:07:29;;;;;;;2.65;1.50;;;;;;;21.88;47.35;102024.44;5046490;28;20029;-55
2023/06/06 08:09:54;;;;;;;1.50;1.40;;;;;;;21.89;47.50;102020.72;5045948;28;20099;-55
2023/06/06 08:12:20;;;;;;;1.80;1.30;;;;;;;21.89;47.40;102026.97;5046965;28;20124;-55
2023/06/06 08:14:45;;;;;;;1.50;1.40;;;;;;;21.88;47.34;102022.56;5044664;28;20033;-55
2023/06/06 08:17:12;;;;;;;1.30;1.20;;;;;;;21.86;47.65;102017.28;5046230;28;20537;-55
2023/06/06 08:19:37;;;;;;;2.08;1.88;;;;;;;21.88;47.42;102022.56;5045719;28;20041;-55
2023/06/06 08:22:03;;;;;;;1.50;1.40;;;;;;;21.89;47.32;102026.13;5051656;28;20032;-55
2023/06/06 08:24:29;;;;;;;1.63;1.52;;;;;;;21.89;47.73;102015.28;5047472;28;20491;-55
2023/06/06 08:26:54;;;;;;;1.52;1.42;;;;;;;21.89;47.80;102018.00;5051424;28;20030;-55
2023/06/06 08:29:20;;;;;;;2.75;1.65;;;;;;;21.88;47.47;102016.31;5045688;28;20040;-55
2023/06/06 08:31:45;;;;;;;2.28;1.48;;;;;;;21.88;47.87;102019.84;5045947;28;20029;-55
2023/06/06 08:34:11;;;;;;;2.08;1.50;;;;;;;21.88;47.91;102017.16;5046243;28;20075;-55
2023/06/06 08:36:37;;;;;;;1.65;1.40;;;;;;;21.88;47.54;102014.44;5046625;28;20114;-55
2023/06/06 08:39:03;;;;;;;1.30;1.20;;;;;;;21.89;47.45;102015.28;5045395;28;20064;-55
2023/06/06 08:41:31;;;;;;;1.60;1.50;;;;;;;21.89;47.50;102020.72;5046089;28;20446;-55
2023/06/06 08:43:59;;;;;;;1.48;1.38;;;;;;;21.89;47.86;102018.00;5045755;28;20032;-55
2023/06/06 08:46:25;;;;;;;1.98;1.38;;;;;;;21.88;47.46;102019.00;5047123;28;20057;-55
2023/06/06 08:48:53;;;;;;;1.50;1.40;;;;;;;21.88;47.63;102014.44;5047732;28;20526;-56
2023/06/06 08:51:25;;;;;;;1.52;1.38;;;;;;;21.89;47.45;102013.41;5049300;28;20056;-55
2023/06/06 08:53:52;;;;;;;1.67;1.50;;;;;;;21.89;47.43;102010.72;5049854;28;21018;-55
2023/06/06 08:56:22;;;;;;;1.77;1.42;;;;;;;21.90;48.01;102014.28;5047811;28;20108;-55
2023/06/06 08:58:50;;;;;;;1.60;1.50;;;;;;;21.89;47.39;102013.41;5050517;28;20029;-55
2023/06/06 09:01:20;;;;;;;1.55;1.45;;;;;;;21.90;47.31;102014.28;5050168;28;20471;-55
2023/06/06 09:03:48;;;;;;;1.25;1.25;;;;;;;21.90;47.69;102011.59;5049150;28;20136;-55
2023/06/06 09:06:17;;;;;;;1.48;1.38;;;;;;;21.90;47.83;102014.28;5048952;28;20036;-55
2023/06/06 09:08:43;;;;;;;1.58;1.48;;;;;;;21.90;48.09;102012.44;5049707;28;20080;-55
2023/06/06 09:11:09;;;;;;;1.58;1.48;;;;;;;21.90;47.73;102012.44;5049604;28;20037;-55
2023/06/06 09:13:34;;;;;;;1.60;1.50;;;;;;;21.90;47.85;102011.59;5048949;28;20098;-55
2023/06/06 09:16:03;;;;;;;3.00;1.73;;;;;;;21.90;48.09;102004.28;5049315;28;20036;-55
2023/06/06 09:18:28;;;;;;;1.45;1.35;;;;;;;21.90;47.78;102007.00;5048299;28;20493;-55
2023/06/06 09:20:54;;;;;;;1.45;1.35;;;;;;;21.90;47.57;102004.28;5049306;28;20028;-55
2023/06/06 09:23:20;;;;;;;2.15;1.55;;;;;;;21.91;47.49;102005.16;5058356;28;20119;-55
2023/06/06 09:25:47;;;;;;;1.10;1.10;;;;;;;21.92;47.99;102009.59;5049954;28;20378;-55
2023/06/06 09:28:12;;;;;;;1.50;1.40;;;;;;;21.91;47.76;102007.84;5048821;28;20063;-55
2023/06/06 09:30:38;;;;;;;1.45;1.30;;;;;;;21.92;47.81;102006.88;5049201;28;20064;-55
2023/06/06 09:33:04;;;;;;;1.30;1.20;;;;;;;21.91;47.67;101997.00;5048034;28;20513;-56
2023/06/06 09:35:37;;;;;;;1.40;1.30;;;;;;;21.91;47.49;101991.59;5048763;28;20038;-55
2023/06/06 09:38:15;;;;;;;1.63;1.52;;;;;;;21.93;48.11;101995.00;5048741;28;20033;-55
2023/06/06 09:40:45;;;;;;;1.20;1.20;;;;;;;21.92;48.03;101993.31;5049033;28;20039;-55
2023/06/06 09:43:11;;;;;;;1.20;1.20;;;;;;;21.93;48.08;101995.00;5048850;28;20059;-56
2023/06/06 09:45:55;;;;;;;1.27;1.17;;;;;;;21.93;47.75;101984.16;5048316;28;20119;-55
2023/06/06 09:48:22;;;;;;;1.52;1.17;;;;;;;21.92;47.95;101988.75;5048447;28;20095;-55
2023/06/06 09:50:48;;;;;;;1.90;1.63;;;;;;;21.93;47.83;101990.44;5047477;28;20118;-55
2023/06/06 09:53:13;;;;;;;1.35;1.25;;;;;;;21.92;47.21;101980.59;5046585;28;20034;-55
2023/06/06 09:55:41;;;;;;;1.40;1.30;;;;;;;21.93;47.98;101986.88;5048350;28;20095;-55
2023/06/06 09:58:08;;;;;;;3.65;1.50;;;;;;;21.92;47.44;101987.88;5042427;28;20033;-55
2023/06/06 10:00:37;;;;;;;1.38;1.27;;;;;;;21.93;48.05;101989.59;5043501;28;20041;-56
2023/06/06 10:03:04;;;;;;;1.38;1.25;;;;;;;21.94;47.66;101983.19;5048980;28;20037;-55
2023/06/06 10:05:31;;;;;;;1.77;1.63;;;;;;;21.93;47.97;101979.59;5051594;28;20060;-55
2023/06/06 10:07:57;;;;;;;1.55;1.45;;;;;;;21.94;47.53;101977.75;5047915;28;20437;-55
2023/06/06 10:10:24;;;;;;;1.30;1.20;;;;;;;21.95;47.46;101987.56;5046889;28;20494;-55
2023/06/06 10:12:53;;;;;;;1.40;1.30;;;;;;;21.94;47.60;101983.19;5048442;28;20425;-55
2023/06/06 10:15:20;;;;;;;1.60;1.50;;;;;;;21.95;47.57;101976.72;5048440;28;20413;-56
2023/06/06 10:17:45;;;;;;;1.50;1.40;;;;;;;21.96;47.53;101970.31;5047992;28;20074;-55
2023/06/06 10:20:12;;;;;;;1.60;1.42;;;;;;;21.96;48.00;101973.03;5052211;28;20066;-55
2023/06/06 10:22:40;;;;;;;1.60;1.50;;;;;;;21.97;47.90;101969.31;5052294;28;20036;-55
2023/06/06 10:25:16;;;;;;;1.35;1.25;;;;;;;21.98;47.74;101965.59;5047288;28;20033;-55
2023/06/06 10:27:52;;;;;;;1.60;1.50;;;;;;;21.98;48.06;101976.47;5046882;28;20021;-55
2023/06/06 10:31:14;;;;;;;1.55;1.30;;;;;;;22.02;47.63;101978.72;5047609;28;20464;-55
2023/06/06 10:33:54;;;;;;;1.55;1.30;;;;;;;22.01;48.24;101974.31;5045364;28;20037;-55
2023/06/06 10:36:20;;;;;;;1.50;1.40;;;;;;;22.00;48.30;101969.03;5044349;28;20036;-55
2023/06/06 10:39:17;;;;;;;1.50;1.40;;;;;;;22.02;47.75;101975.16;5045932;28;20534;-56
2023/06/06 10:41:48;;;;;;;1.40;1.30;;;;;;;22.01;47.82;101971.59;5054741;28;20458;-56
2023/06/06 10:44:13;;;;;;;1.40;1.30;;;;;;;22.01;47.84;101965.31;5047745;28;20048;-56
2023/06/06 10:46:40;;;;;;;1.35;1.30;;;;;;;22.01;47.58;101966.19;5046431;28;20138;-55
2023/06/06 10:49:06;;;;;;;1.20;1.20;;;;;;;22.02;47.84;101973.28;5047350;28;20049;-55
2023/06/06 10:51:39;;;;;;;1.60;1.50;;;;;;;22.02;48.30;101972.44;5047882;28;20037;-55
2023/06/06 10:54:17;;;;;;;1.92;1.23;;;;;;;22.03;47.73;101963.31;5046614;28;20041;-55
2023/06/06 10:56:48;;;;;;;1.25;1.15;;;;;;;22.02;47.84;101964.31;5047061;28;20103;-55
2023/06/06 10:59:14;;;;;;;2.20;1.55;;;;;;;22.04;47.91;101967.72;5048604;28;20033;-56
2023/06/06 11:01:42;;;;;;;1.20;1.20;;;;;;;22.04;47.87;101965.03;5046221;28;20170;-55
2023/06/06 11:04:21;;;;;;;1.30;1.20;;;;;;;22.05;48.46;101956.75;5046051;28;20041;-56
2023/06/06 11:06:50;;;;;;;1.58;1.48;;;;;;;22.05;48.31;101955.91;5046416;28;20033;-55
2023/06/06 11:09:25;;;;;;;1.50;1.40;;;;;;;22.06;48.42;101958.44;5046775;28;20029;-56
2023/06/06 11:12:12;;;;;;;1.67;1.40;;;;;;;22.08;48.42;101954.72;5040529;28;20041;-56
2023/06/06 11:15:07;;;;;;;2.38;1.23;;;;;;;22.09;48.02;101954.59;5048317;28;20378;-55
2023/06/06 11:18:05;;;;;;;1.30;1.20;;;;;;;22.12;48.44;101945.28;5046954;28;20055;-56
2023/06/06 11:20:40;;;;;;;1.83;1.58;;;;;;;22.10;48.05;101942.72;5048321;28;20037;-56
2023/06/06 11:23:08;;;;;;;1.52;1.42;;;;;;;22.09;48.23;101940.19;5049956;28;20037;-55
2023/06/06 11:25:38;;;;;;;1.10;1.10;;;;;;;22.08;48.29;101944.72;5046341;28;20027;-56